createdAt,value
2019-04-06T00:02:00.638Z,6.00
2019-04-06T00:04:41.938Z,6.00
2019-04-06T00:07:22.947Z,6.00
2019-04-06T00:10:03.625Z,6.10
2019-04-06T00:15:29.350Z,6.00
2019-04-06T00:21:03.523Z,6.00
2019-04-06T00:26:36.156Z,6.10
2019-04-06T00:32:04.967Z,6.10
2019-04-06T00:34:46.364Z,6.10
2019-04-06T00:37:28.646Z,6.10
2019-04-06T00:42:59.143Z,6.00
2019-04-06T00:45:41.648Z,6.00
2019-04-06T00:48:23.111Z,6.00
2019-04-06T00:53:49.272Z,6.00
2019-04-06T00:59:20.649Z,5.90
2019-04-06T01:07:40.664Z,5.90
2019-04-06T01:13:11.361Z,6.00
2019-04-06T01:18:37.981Z,6.00
2019-04-06T01:24:08.340Z,6.10
2019-04-06T01:29:35.023Z,6.10
2019-04-06T01:35:04.979Z,6.10
2019-04-06T01:43:21.522Z,5.90
2019-04-06T01:46:02.713Z,5.90
2019-04-06T01:48:43.779Z,5.80
2019-04-06T01:51:25.711Z,5.80
2019-04-06T01:54:06.599Z,5.80
2019-04-06T01:56:47.743Z,5.80
2019-04-06T02:02:14.653Z,5.80
2019-04-06T02:04:55.219Z,5.80
2019-04-06T02:07:37.642Z,5.80
2019-04-06T02:10:18.799Z,5.70
2019-04-06T02:12:59.507Z,5.60
2019-04-06T02:18:24.261Z,5.40
2019-04-06T02:24:24.321Z,5.20
2019-04-06T02:33:19.140Z,4.90
2019-04-06T02:36:01.571Z,4.80
2019-04-06T02:41:28.985Z,4.80
2019-04-06T02:46:56.510Z,4.70
2019-04-06T02:52:29.219Z,4.60
2019-04-06T02:55:10.602Z,4.60
2019-04-06T02:57:53.077Z,4.50
2019-04-06T03:00:21.857Z,4.50
2019-04-06T03:03:10.118Z,4.50
2019-04-06T03:09:13.278Z,4.50
2019-04-06T03:14:39.712Z,4.50
2019-04-06T03:20:10.681Z,4.40
2019-04-06T03:28:46.074Z,4.40
2019-04-06T03:31:28.188Z,4.30
2019-04-06T03:37:01.085Z,4.20
2019-04-06T03:42:32.009Z,4.10
2019-04-06T03:47:59.252Z,4.20
2019-04-06T03:53:30.262Z,4.20
2019-04-06T03:58:59.334Z,4.20
2019-04-06T04:04:30.323Z,4.10
2019-04-06T04:07:11.237Z,4.10
2019-04-06T04:09:51.979Z,4.10
2019-04-06T04:15:17.114Z,4.10
2019-04-06T04:17:58.126Z,4.00
2019-04-06T04:20:42.849Z,4.00
2019-04-06T04:26:43.166Z,3.90
2019-04-06T04:32:42.789Z,3.80
2019-04-06T04:35:23.823Z,3.70
2019-04-06T04:38:04.214Z,3.60
2019-04-06T04:40:45.339Z,3.60
2019-04-06T04:43:26.583Z,3.50
2019-04-06T04:46:07.696Z,3.50
2019-04-06T04:48:48.956Z,3.40
2019-04-06T04:51:29.898Z,3.40
2019-04-06T04:57:21.441Z,3.50
2019-04-06T05:00:02.666Z,3.50
2019-04-06T05:02:43.447Z,3.50
2019-04-06T05:05:24.684Z,3.60
2019-04-06T05:08:06.130Z,3.60
2019-04-06T05:10:47.035Z,3.70
2019-04-06T05:31:11.091Z,4.60
2019-04-06T05:33:52.216Z,4.90
2019-04-06T05:36:34.732Z,5.10
2019-04-06T05:39:16.813Z,5.20
2019-04-06T05:44:45.537Z,5.50
2019-04-06T05:47:26.402Z,5.70
2019-04-06T05:50:07.774Z,5.80
2019-04-06T05:52:48.881Z,5.90
2019-04-06T05:55:31.024Z,6.10
2019-04-06T06:01:04.479Z,6.30
2019-04-06T06:03:46.918Z,6.40
2019-04-06T06:06:28.863Z,6.50
2019-04-06T06:09:10.324Z,6.60
2019-04-06T06:11:52.467Z,6.70
2019-04-06T06:17:19.797Z,6.90
2019-04-06T06:20:00.614Z,7.10
2019-04-06T06:22:42.234Z,7.20
2019-04-06T06:28:14.200Z,7.40
2019-04-06T06:33:40.406Z,7.70
2019-04-06T06:39:07.167Z,7.90
2019-04-06T06:41:48.330Z,8.10
2019-04-06T06:44:28.850Z,8.20
2019-04-06T06:47:09.730Z,8.40
2019-04-06T06:49:50.903Z,8.50
2019-04-06T06:52:37.754Z,8.70
2019-04-06T06:55:19.152Z,8.90
2019-04-06T06:58:00.236Z,9.10
2019-04-06T07:00:41.476Z,9.40
2019-04-06T07:03:21.898Z,9.50
2019-04-06T07:06:02.543Z,9.70
2019-04-06T07:08:42.925Z,10.00
2019-04-06T07:11:24.148Z,10.20
2019-04-06T07:14:04.667Z,10.50
2019-04-06T07:16:45.231Z,10.70
2019-04-06T07:19:25.793Z,10.90
2019-04-06T07:22:06.931Z,11.20
2019-04-06T07:24:47.531Z,11.40
2019-04-06T07:27:28.445Z,11.60
2019-04-06T07:30:09.505Z,11.70
2019-04-06T07:32:50.442Z,11.90
2019-04-06T07:38:23.917Z,12.20
2019-04-06T07:43:49.203Z,12.50
2019-04-06T07:46:30.074Z,12.70
2019-04-06T07:49:11.647Z,12.90
2019-04-06T07:51:52.631Z,13.00
2019-04-06T07:54:33.191Z,13.20
2019-04-06T07:57:13.731Z,13.20
2019-04-06T07:59:55.749Z,13.20
2019-04-06T08:05:21.507Z,13.30
2019-04-06T08:08:02.491Z,13.40
2019-04-06T08:10:43.508Z,13.50
2019-04-06T08:13:24.586Z,13.70
2019-04-06T08:16:06.078Z,13.80
2019-04-06T08:18:47.484Z,14.00
2019-04-06T08:21:29.071Z,14.10
2019-04-06T08:24:10.000Z,14.20
2019-04-06T08:26:51.354Z,14.30
2019-04-06T08:29:32.218Z,14.30
2019-04-06T08:32:12.820Z,14.40
2019-04-06T08:34:53.667Z,14.50
2019-04-06T08:37:34.336Z,14.60
2019-04-06T08:40:14.713Z,14.70
2019-04-06T08:42:55.772Z,14.80
2019-04-06T08:45:36.967Z,14.90
2019-04-06T08:48:18.244Z,15.00
2019-04-06T08:50:59.196Z,15.10
2019-04-06T08:53:40.206Z,15.20
2019-04-06T08:56:20.989Z,15.40
2019-04-06T08:59:11.469Z,15.60
2019-04-06T09:10:43.318Z,16.20
2019-04-06T09:19:18.058Z,16.50
2019-04-06T09:22:01.847Z,16.50
2019-04-06T09:58:46.371Z,17.80
2019-04-06T13:42:03.517Z,18.90
2019-04-06T13:44:44.644Z,18.80
2019-04-06T13:47:25.556Z,18.70
2019-04-06T13:50:07.353Z,18.50
2019-04-06T13:52:48.609Z,18.30
2019-04-06T13:55:30.909Z,18.00
2019-04-06T13:58:12.318Z,17.80
2019-04-06T14:03:31.233Z,17.50
2019-04-06T14:08:56.667Z,17.60
2019-04-06T14:11:37.635Z,17.70
2019-04-06T14:14:20.526Z,17.80
2019-04-06T14:17:02.709Z,17.80
2019-04-06T14:19:43.288Z,17.70
2019-04-06T14:22:25.507Z,17.60
2019-04-06T14:25:06.308Z,17.50
2019-04-06T14:27:46.928Z,17.40
2019-04-06T14:30:27.926Z,17.30
2019-04-06T14:35:47.870Z,17.20
2019-04-06T14:41:16.408Z,17.10
2019-04-06T14:43:56.222Z,17.00
2019-04-06T14:46:37.161Z,16.90
2019-04-06T14:52:10.347Z,16.60
2019-04-06T14:54:50.960Z,16.50
2019-04-06T14:57:34.319Z,16.40
2019-04-06T15:00:14.909Z,16.40
2019-04-06T15:02:56.715Z,16.30
2019-04-06T15:05:36.855Z,16.20
2019-04-06T15:08:16.967Z,16.20
2019-04-06T15:10:57.852Z,16.10
2019-04-06T15:13:38.599Z,16.00
2019-04-06T15:16:19.122Z,15.90
2019-04-06T15:19:00.149Z,15.80
2019-04-06T15:24:24.702Z,15.70
2019-04-06T15:27:05.334Z,15.70
2019-04-06T15:30:10.076Z,15.80
2019-04-06T15:32:52.999Z,15.80
2019-04-06T15:38:48.641Z,15.90
2019-04-06T15:41:33.231Z,15.80
2019-04-06T15:47:39.324Z,15.70
2019-04-06T15:53:21.358Z,15.60
2019-04-06T15:59:11.324Z,15.60
2019-04-06T16:05:17.705Z,15.50
2019-04-06T16:08:03.182Z,15.40
2019-04-06T16:10:44.224Z,15.40
2019-04-06T16:16:36.962Z,15.30
2019-04-06T16:22:28.772Z,15.30
2019-04-06T16:27:55.889Z,15.20
2019-04-06T16:34:05.374Z,15.20
2019-04-06T16:36:50.912Z,15.20
2019-04-06T16:39:52.455Z,15.20
2019-04-06T16:46:00.179Z,15.10
2019-04-06T16:48:43.281Z,15.10
2019-04-06T16:51:47.021Z,15.10
2019-04-06T16:54:29.727Z,15.00
2019-04-06T17:00:18.341Z,14.80
2019-04-06T17:11:49.070Z,14.50
2019-04-06T17:17:44.980Z,14.30
2019-04-06T17:20:30.319Z,14.30
2019-04-06T17:28:55.693Z,14.10
2019-04-06T17:34:53.154Z,14.00
2019-04-06T17:40:51.074Z,13.80
2019-04-06T17:46:39.559Z,13.50
2019-04-06T17:49:24.164Z,13.40
2019-04-06T17:52:27.839Z,13.20
2019-04-06T17:57:53.711Z,13.00
2019-04-06T18:03:41.060Z,12.80
2019-04-06T18:09:26.995Z,12.70
2019-04-06T18:15:12.742Z,12.70
2019-04-06T18:20:58.757Z,12.60
2019-04-06T18:23:39.681Z,12.50
2019-04-06T18:26:21.284Z,12.50
2019-04-06T18:31:48.394Z,12.50
2019-04-06T18:37:43.142Z,12.50
2019-04-06T18:40:27.033Z,12.50
2019-04-06T18:43:08.815Z,12.40
2019-04-06T18:45:49.825Z,12.40
2019-04-06T18:48:31.030Z,12.40
2019-04-06T18:51:12.297Z,12.30
2019-04-06T18:53:53.703Z,12.30
2019-04-06T18:59:47.062Z,12.20
2019-04-06T19:05:16.136Z,12.00
2019-04-06T19:07:57.992Z,12.00
2019-04-06T19:13:26.279Z,11.90
2019-04-06T19:16:08.405Z,11.90
2019-04-06T19:18:51.023Z,11.90
2019-04-06T19:21:32.437Z,11.90
2019-04-06T19:24:13.892Z,11.90
2019-04-06T19:26:55.379Z,11.90
2019-04-06T19:32:18.482Z,11.80
2019-04-06T19:35:01.144Z,11.80
2019-04-06T19:37:53.489Z,11.80
2019-04-06T19:43:19.137Z,11.50
2019-04-06T19:46:01.330Z,11.40
2019-04-06T19:48:43.625Z,11.30
2019-04-06T19:51:24.208Z,11.20
2019-04-06T19:56:51.938Z,10.90
2019-04-06T19:59:33.292Z,10.80
2019-04-06T20:05:26.331Z,10.70
2019-04-06T20:10:52.145Z,10.50
2019-04-06T20:13:33.362Z,10.40
2019-04-06T20:16:14.532Z,10.30
2019-04-06T20:18:57.182Z,10.20
2019-04-06T20:21:37.769Z,10.20
2019-04-06T20:24:19.814Z,10.10
2019-04-06T20:27:01.398Z,10.00
2019-04-06T20:29:42.478Z,10.00
2019-04-06T20:32:23.522Z,9.90
2019-04-06T20:37:50.028Z,9.80
2019-04-06T20:40:31.319Z,9.70
2019-04-06T20:43:12.381Z,9.70
2019-04-06T20:45:52.744Z,9.60
2019-04-06T20:48:33.708Z,9.60
2019-04-06T20:51:15.851Z,9.50
2019-04-06T20:53:59.961Z,9.50
2019-04-06T20:56:52.064Z,9.40
2019-04-06T20:59:24.511Z,9.30
2019-04-06T21:02:04.857Z,9.30
2019-04-06T21:04:46.034Z,9.20
2019-04-06T21:07:27.242Z,9.10
2019-04-06T21:10:09.844Z,9.00
2019-04-06T21:12:52.467Z,8.90
2019-04-06T21:15:34.107Z,8.90
2019-04-06T21:18:15.057Z,8.90
2019-04-06T21:20:55.533Z,8.80
2019-04-06T21:23:36.360Z,8.80
2019-04-06T21:26:18.118Z,8.80
2019-04-06T21:28:59.756Z,8.80
2019-04-06T21:31:41.090Z,8.80
2019-04-06T21:34:22.088Z,8.90
2019-04-06T21:39:54.305Z,8.80
2019-04-06T21:42:35.376Z,8.80
2019-04-06T21:45:16.679Z,8.80
2019-04-06T21:47:57.676Z,8.70
2019-04-06T21:50:38.629Z,8.70
2019-04-06T21:53:20.355Z,8.60
2019-04-06T21:56:05.762Z,8.60
2019-04-06T21:58:44.669Z,8.60
2019-04-06T22:04:22.596Z,8.50
2019-04-06T22:06:54.026Z,8.40
2019-04-06T22:09:35.474Z,8.40
2019-04-06T22:15:00.849Z,8.40
2019-04-06T22:20:31.218Z,8.40
2019-04-06T22:23:12.114Z,8.30
2019-04-06T22:25:53.692Z,8.30
2019-04-06T22:28:35.025Z,8.30
2019-04-06T22:31:16.751Z,8.30
2019-04-06T22:37:14.035Z,8.30
2019-04-06T22:39:35.499Z,8.30
2019-04-06T22:42:17.398Z,8.30
2019-04-06T22:44:58.752Z,8.20
2019-04-06T22:47:41.494Z,8.10
2019-04-06T22:50:23.291Z,8.10
2019-04-06T22:53:04.715Z,8.00
2019-04-06T22:55:45.851Z,8.00
2019-04-06T22:58:27.992Z,8.00
2019-04-06T23:03:57.166Z,8.00
2019-04-06T23:09:27.910Z,7.80
2019-04-06T23:12:10.181Z,7.80
2019-04-06T23:14:53.666Z,7.70
2019-04-06T23:17:35.092Z,7.70
2019-04-06T23:20:17.443Z,7.70
2019-04-06T23:23:00.940Z,7.70
2019-04-06T23:25:46.472Z,7.70
2019-04-06T23:28:28.512Z,7.70
2019-04-06T23:34:19.212Z,7.70
2019-04-06T23:37:00.759Z,7.70
2019-04-06T23:39:42.337Z,7.70
2019-04-06T23:42:27.905Z,7.70
2019-04-06T23:45:11.535Z,7.60
2019-04-06T23:47:55.831Z,7.60
2019-04-06T23:53:21.750Z,7.40
2019-04-06T23:56:04.330Z,7.30
2019-04-06T23:58:47.038Z,7.20
